sensor_id;sensor_type;location;lat;lon;timestamp;P1;durP1;ratioP1;P2;durP2;ratioP2
47589;SDS011;33316;52.298;9.056;2023-10-19T00:01:14;9.20;;;6.45;;
47589;SDS011;33316;52.298;9.056;2023-10-19T00:03:44;9.70;;;6.43;;
47589;SDS011;33316;52.298;9.056;2023-10-19T00:06:10;8.25;;;6.13;;
47589;SDS011;33316;52.298;9.056;2023-10-19T00:08:38;8.35;;;5.88;;
47589;SDS011;33316;52.298;9.056;2023-10-19T00:11:06;8.68;;;6.03;;
47589;SDS011;33316;52.298;9.056;2023-10-19T00:13:36;7.63;;;5.40;;
47589;SDS011;33316;52.298;9.056;2023-10-19T00:16:03;8.80;;;5.68;;
47589;SDS011;33316;52.298;9.056;2023-10-19T00:18:37;9.10;;;6.57;;
47589;SDS011;33316;52.298;9.056;2023-10-19T00:21:07;8.82;;;6.22;;
47589;SDS011;33316;52.298;9.056;2023-10-19T00:23:44;7.85;;;5.28;;
47589;SDS011;33316;52.298;9.056;2023-10-19T00:26:13;9.45;;;6.60;;
47589;SDS011;33316;52.298;9.056;2023-10-19T00:28:53;6.97;;;5.70;;
47589;SDS011;33316;52.298;9.056;2023-10-19T00:31:22;8.00;;;6.20;;
47589;SDS011;33316;52.298;9.056;2023-10-19T00:33:52;8.45;;;6.65;;
47589;SDS011;33316;52.298;9.056;2023-10-19T00:36:20;7.60;;;5.35;;
47589;SDS011;33316;52.298;9.056;2023-10-19T00:38:56;8.02;;;5.20;;
47589;SDS011;33316;52.298;9.056;2023-10-19T00:41:25;10.02;;;6.22;;
47589;SDS011;33316;52.298;9.056;2023-10-19T00:43:56;10.15;;;7.25;;
47589;SDS011;33316;52.298;9.056;2023-10-19T00:46:28;11.60;;;7.07;;
47589;SDS011;33316;52.298;9.056;2023-10-19T00:48:59;10.98;;;7.40;;
47589;SDS011;33316;52.298;9.056;2023-10-19T00:51:29;11.50;;;7.50;;
47589;SDS011;33316;52.298;9.056;2023-10-19T00:54:09;8.75;;;6.65;;
47589;SDS011;33316;52.298;9.056;2023-10-19T00:56:41;9.93;;;6.20;;
47589;SDS011;33316;52.298;9.056;2023-10-19T00:59:15;7.45;;;5.38;;
47589;SDS011;33316;52.298;9.056;2023-10-19T01:01:49;9.95;;;6.95;;
47589;SDS011;33316;52.298;9.056;2023-10-19T01:04:19;11.13;;;7.43;;
47589;SDS011;33316;52.298;9.056;2023-10-19T01:06:48;9.18;;;6.57;;
47589;SDS011;33316;52.298;9.056;2023-10-19T01:09:30;9.55;;;6.53;;
47589;SDS011;33316;52.298;9.056;2023-10-19T01:12:00;10.20;;;7.25;;
47589;SDS011;33316;52.298;9.056;2023-10-19T01:14:33;12.27;;;7.90;;
47589;SDS011;33316;52.298;9.056;2023-10-19T01:17:00;11.15;;;7.70;;
47589;SDS011;33316;52.298;9.056;2023-10-19T01:19:28;9.98;;;6.93;;
47589;SDS011;33316;52.298;9.056;2023-10-19T01:21:55;10.88;;;7.35;;
47589;SDS011;33316;52.298;9.056;2023-10-19T01:24:27;11.02;;;7.53;;
47589;SDS011;33316;52.298;9.056;2023-10-19T01:27:05;9.65;;;6.75;;
47589;SDS011;33316;52.298;9.056;2023-10-19T01:29:34;11.48;;;6.75;;
47589;SDS011;33316;52.298;9.056;2023-10-19T01:32:03;7.88;;;5.95;;
47589;SDS011;33316;52.298;9.056;2023-10-19T01:34:33;8.18;;;5.68;;
47589;SDS011;33316;52.298;9.056;2023-10-19T01:37:01;10.20;;;6.78;;
47589;SDS011;33316;52.298;9.056;2023-10-19T01:39:31;9.15;;;6.72;;
47589;SDS011;33316;52.298;9.056;2023-10-19T01:42:02;11.15;;;7.70;;
47589;SDS011;33316;52.298;9.056;2023-10-19T01:44:29;9.48;;;7.47;;
47589;SDS011;33316;52.298;9.056;2023-10-19T01:47:01;11.02;;;6.78;;
47589;SDS011;33316;52.298;9.056;2023-10-19T01:49:30;9.57;;;6.60;;
47589;SDS011;33316;52.298;9.056;2023-10-19T01:51:57;9.02;;;6.60;;
47589;SDS011;33316;52.298;9.056;2023-10-19T01:54:26;10.68;;;7.13;;
47589;SDS011;33316;52.298;9.056;2023-10-19T01:56:55;10.35;;;7.03;;
47589;SDS011;33316;52.298;9.056;2023-10-19T01:59:22;9.43;;;5.75;;
47589;SDS011;33316;52.298;9.056;2023-10-19T02:01:53;8.70;;;6.32;;
47589;SDS011;33316;52.298;9.056;2023-10-19T02:04:20;10.02;;;6.90;;
47589;SDS011;33316;52.298;9.056;2023-10-19T02:06:48;9.52;;;6.97;;
47589;SDS011;33316;52.298;9.056;2023-10-19T02:09:15;9.45;;;6.93;;
47589;SDS011;33316;52.298;9.056;2023-10-19T02:11:49;8.48;;;6.47;;
47589;SDS011;33316;52.298;9.056;2023-10-19T02:14:22;8.40;;;6.28;;
47589;SDS011;33316;52.298;9.056;2023-10-19T02:16:52;10.07;;;7.00;;
47589;SDS011;33316;52.298;9.056;2023-10-19T02:19:22;9.90;;;6.72;;
47589;SDS011;33316;52.298;9.056;2023-10-19T02:21:53;10.35;;;7.80;;
47589;SDS011;33316;52.298;9.056;2023-10-19T02:24:21;10.77;;;8.00;;
47589;SDS011;33316;52.298;9.056;2023-10-19T02:26:48;9.25;;;7.43;;
47589;SDS011;33316;52.298;9.056;2023-10-19T02:29:17;11.10;;;7.20;;
47589;SDS011;33316;52.298;9.056;2023-10-19T02:31:46;10.48;;;7.28;;
47589;SDS011;33316;52.298;9.056;2023-10-19T02:34:13;11.95;;;8.52;;
47589;SDS011;33316;52.298;9.056;2023-10-19T02:36:43;11.23;;;8.07;;
47589;SDS011;33316;52.298;9.056;2023-10-19T02:39:12;9.48;;;6.70;;
47589;SDS011;33316;52.298;9.056;2023-10-19T02:41:41;10.90;;;7.05;;
47589;SDS011;33316;52.298;9.056;2023-10-19T02:44:09;9.10;;;6.90;;
47589;SDS011;33316;52.298;9.056;2023-10-19T02:46:47;10.68;;;7.68;;
47589;SDS011;33316;52.298;9.056;2023-10-19T02:49:15;12.77;;;7.85;;
47589;SDS011;33316;52.298;9.056;2023-10-19T02:51:45;9.95;;;6.60;;
47589;SDS011;33316;52.298;9.056;2023-10-19T02:54:12;10.63;;;7.40;;
47589;SDS011;33316;52.298;9.056;2023-10-19T02:56:48;9.60;;;6.78;;
47589;SDS011;33316;52.298;9.056;2023-10-19T02:59:16;9.48;;;6.78;;
47589;SDS011;33316;52.298;9.056;2023-10-19T03:01:49;10.20;;;6.63;;
47589;SDS011;33316;52.298;9.056;2023-10-19T03:04:16;10.93;;;7.85;;
47589;SDS011;33316;52.298;9.056;2023-10-19T03:06:45;11.95;;;7.35;;
47589;SDS011;33316;52.298;9.056;2023-10-19T03:09:12;11.75;;;8.25;;
47589;SDS011;33316;52.298;9.056;2023-10-19T03:11:41;11.38;;;8.05;;
47589;SDS011;33316;52.298;9.056;2023-10-19T03:14:10;11.40;;;7.28;;
47589;SDS011;33316;52.298;9.056;2023-10-19T03:16:37;9.50;;;6.85;;
47589;SDS011;33316;52.298;9.056;2023-10-19T03:19:09;7.90;;;5.97;;
47589;SDS011;33316;52.298;9.056;2023-10-19T03:21:35;8.85;;;7.32;;
47589;SDS011;33316;52.298;9.056;2023-10-19T03:24:07;11.20;;;7.50;;
47589;SDS011;33316;52.298;9.056;2023-10-19T03:26:39;8.60;;;6.85;;
47589;SDS011;33316;52.298;9.056;2023-10-19T03:29:14;7.35;;;5.30;;
47589;SDS011;33316;52.298;9.056;2023-10-19T03:31:48;9.60;;;6.22;;
47589;SDS011;33316;52.298;9.056;2023-10-19T03:34:18;9.95;;;6.07;;
47589;SDS011;33316;52.298;9.056;2023-10-19T03:36:49;7.93;;;6.03;;
47589;SDS011;33316;52.298;9.056;2023-10-19T03:39:17;8.02;;;5.97;;
47589;SDS011;33316;52.298;9.056;2023-10-19T03:41:46;9.23;;;5.35;;
47589;SDS011;33316;52.298;9.056;2023-10-19T03:44:17;7.72;;;4.93;;
47589;SDS011;33316;52.298;9.056;2023-10-19T03:46:49;6.18;;;4.40;;
47589;SDS011;33316;52.298;9.056;2023-10-19T03:49:24;7.93;;;5.00;;
47589;SDS011;33316;52.298;9.056;2023-10-19T03:51:55;7.50;;;5.63;;
47589;SDS011;33316;52.298;9.056;2023-10-19T03:54:28;9.45;;;5.93;;
47589;SDS011;33316;52.298;9.056;2023-10-19T03:56:58;6.72;;;5.28;;
47589;SDS011;33316;52.298;9.056;2023-10-19T03:59:31;7.50;;;5.20;;
47589;SDS011;33316;52.298;9.056;2023-10-19T04:01:59;5.80;;;4.57;;
47589;SDS011;33316;52.298;9.056;2023-10-19T04:04:34;5.03;;;3.67;;
47589;SDS011;33316;52.298;9.056;2023-10-19T04:07:01;5.80;;;3.60;;
47589;SDS011;33316;52.298;9.056;2023-10-19T04:09:39;4.95;;;3.50;;
47589;SDS011;33316;52.298;9.056;2023-10-19T04:12:22;4.97;;;3.72;;
47589;SDS011;33316;52.298;9.056;2023-10-19T04:14:49;4.10;;;3.50;;
47589;SDS011;33316;52.298;9.056;2023-10-19T04:17:18;4.70;;;3.85;;
47589;SDS011;33316;52.298;9.056;2023-10-19T04:19:48;5.25;;;3.50;;
47589;SDS011;33316;52.298;9.056;2023-10-19T04:22:16;4.93;;;3.30;;
47589;SDS011;33316;52.298;9.056;2023-10-19T04:24:48;5.10;;;3.78;;
47589;SDS011;33316;52.298;9.056;2023-10-19T04:27:18;5.53;;;4.10;;
47589;SDS011;33316;52.298;9.056;2023-10-19T04:29:48;4.43;;;3.35;;
47589;SDS011;33316;52.298;9.056;2023-10-19T04:32:15;5.18;;;3.80;;
47589;SDS011;33316;52.298;9.056;2023-10-19T04:34:52;5.25;;;3.60;;
47589;SDS011;33316;52.298;9.056;2023-10-19T04:37:19;4.10;;;3.30;;
47589;SDS011;33316;52.298;9.056;2023-10-19T04:39:49;3.38;;;2.60;;
47589;SDS011;33316;52.298;9.056;2023-10-19T04:42:19;3.88;;;2.72;;
47589;SDS011;33316;52.298;9.056;2023-10-19T04:44:49;4.25;;;3.08;;
47589;SDS011;33316;52.298;9.056;2023-10-19T04:47:17;4.32;;;3.25;;
47589;SDS011;33316;52.298;9.056;2023-10-19T04:49:45;3.33;;;2.70;;
47589;SDS011;33316;52.298;9.056;2023-10-19T04:52:16;5.85;;;3.70;;
47589;SDS011;33316;52.298;9.056;2023-10-19T04:54:50;4.13;;;3.45;;
47589;SDS011;33316;52.298;9.056;2023-10-19T04:57:19;3.53;;;2.85;;
47589;SDS011;33316;52.298;9.056;2023-10-19T04:59:48;3.90;;;3.17;;
47589;SDS011;33316;52.298;9.056;2023-10-19T05:02:15;4.70;;;3.20;;
47589;SDS011;33316;52.298;9.056;2023-10-19T05:04:43;3.33;;;2.72;;
47589;SDS011;33316;52.298;9.056;2023-10-19T05:07:11;2.60;;;2.40;;
47589;SDS011;33316;52.298;9.056;2023-10-19T05:09:43;2.80;;;1.85;;
47589;SDS011;33316;52.298;9.056;2023-10-19T05:12:13;2.10;;;1.70;;
47589;SDS011;33316;52.298;9.056;2023-10-19T05:14:41;1.90;;;1.70;;
47589;SDS011;33316;52.298;9.056;2023-10-19T05:17:09;2.25;;;1.85;;
47589;SDS011;33316;52.298;9.056;2023-10-19T05:19:38;2.10;;;1.70;;
47589;SDS011;33316;52.298;9.056;2023-10-19T05:22:06;2.45;;;2.17;;
47589;SDS011;33316;52.298;9.056;2023-10-19T05:24:34;2.20;;;2.00;;
47589;SDS011;33316;52.298;9.056;2023-10-19T05:27:04;2.92;;;2.25;;
47589;SDS011;33316;52.298;9.056;2023-10-19T05:29:31;3.63;;;2.47;;
47589;SDS011;33316;52.298;9.056;2023-10-19T05:31:59;2.63;;;2.20;;
47589;SDS011;33316;52.298;9.056;2023-10-19T05:34:27;2.20;;;1.77;;
47589;SDS011;33316;52.298;9.056;2023-10-19T05:36:57;2.00;;;1.65;;
47589;SDS011;33316;52.298;9.056;2023-10-19T05:39:27;1.90;;;1.70;;
47589;SDS011;33316;52.298;9.056;2023-10-19T05:41:58;2.05;;;1.35;;
47589;SDS011;33316;52.298;9.056;2023-10-19T05:44:28;1.60;;;1.33;;
47589;SDS011;33316;52.298;9.056;2023-10-19T05:46:55;2.38;;;1.80;;
47589;SDS011;33316;52.298;9.056;2023-10-19T05:49:23;1.60;;;1.50;;
47589;SDS011;33316;52.298;9.056;2023-10-19T05:51:52;2.20;;;1.70;;
47589;SDS011;33316;52.298;9.056;2023-10-19T05:54:19;1.83;;;1.50;;
47589;SDS011;33316;52.298;9.056;2023-10-19T05:56:49;2.03;;;1.42;;
47589;SDS011;33316;52.298;9.056;2023-10-19T05:59:17;2.42;;;1.70;;
47589;SDS011;33316;52.298;9.056;2023-10-19T06:01:46;1.60;;;1.50;;
47589;SDS011;33316;52.298;9.056;2023-10-19T06:04:17;2.17;;;1.55;;
47589;SDS011;33316;52.298;9.056;2023-10-19T06:06:47;1.65;;;1.48;;
47589;SDS011;33316;52.298;9.056;2023-10-19T06:09:18;1.90;;;1.40;;
47589;SDS011;33316;52.298;9.056;2023-10-19T06:11:46;2.05;;;1.50;;
47589;SDS011;33316;52.298;9.056;2023-10-19T06:14:15;2.08;;;1.80;;
47589;SDS011;33316;52.298;9.056;2023-10-19T06:16:42;1.85;;;1.50;;
47589;SDS011;33316;52.298;9.056;2023-10-19T06:19:11;2.13;;;1.60;;
47589;SDS011;33316;52.298;9.056;2023-10-19T06:21:42;1.95;;;1.52;;
47589;SDS011;33316;52.298;9.056;2023-10-19T06:24:09;2.05;;;1.55;;
47589;SDS011;33316;52.298;9.056;2023-10-19T06:29:08;0.90;;;0.80;;
47589;SDS011;33316;52.298;9.056;2023-10-19T06:31:35;1.60;;;1.30;;
47589;SDS011;33316;52.298;9.056;2023-10-19T06:34:04;2.13;;;1.48;;
47589;SDS011;33316;52.298;9.056;2023-10-19T06:36:32;1.98;;;1.65;;
47589;SDS011;33316;52.298;9.056;2023-10-19T06:39:00;3.05;;;1.60;;
47589;SDS011;33316;52.298;9.056;2023-10-19T06:41:31;2.72;;;1.98;;
47589;SDS011;33316;52.298;9.056;2023-10-19T06:43:59;3.67;;;2.88;;
47589;SDS011;33316;52.298;9.056;2023-10-19T06:46:27;3.08;;;2.78;;
47589;SDS011;33316;52.298;9.056;2023-10-19T06:48:56;3.25;;;2.28;;
47589;SDS011;33316;52.298;9.056;2023-10-19T06:51:25;3.08;;;2.65;;
47589;SDS011;33316;52.298;9.056;2023-10-19T06:53:56;4.05;;;2.92;;
47589;SDS011;33316;52.298;9.056;2023-10-19T06:56:23;8.05;;;5.20;;
47589;SDS011;33316;52.298;9.056;2023-10-19T06:58:50;13.95;;;7.53;;
47589;SDS011;33316;52.298;9.056;2023-10-19T07:01:17;13.40;;;7.95;;
47589;SDS011;33316;52.298;9.056;2023-10-19T07:03:48;9.25;;;6.50;;
47589;SDS011;33316;52.298;9.056;2023-10-19T07:06:18;5.47;;;4.05;;
47589;SDS011;33316;52.298;9.056;2023-10-19T07:08:46;4.85;;;4.22;;
47589;SDS011;33316;52.298;9.056;2023-10-19T07:11:14;4.65;;;3.40;;
47589;SDS011;33316;52.298;9.056;2023-10-19T07:13:43;5.28;;;3.38;;
47589;SDS011;33316;52.298;9.056;2023-10-19T07:16:11;3.70;;;3.05;;
47589;SDS011;33316;52.298;9.056;2023-10-19T07:18:38;4.40;;;3.30;;
47589;SDS011;33316;52.298;9.056;2023-10-19T07:21:05;3.80;;;2.83;;
47589;SDS011;33316;52.298;9.056;2023-10-19T07:23:34;4.47;;;3.17;;
47589;SDS011;33316;52.298;9.056;2023-10-19T07:26:03;4.40;;;3.13;;
47589;SDS011;33316;52.298;9.056;2023-10-19T07:28:33;6.18;;;3.72;;
47589;SDS011;33316;52.298;9.056;2023-10-19T07:31:01;4.88;;;3.53;;
47589;SDS011;33316;52.298;9.056;2023-10-19T07:33:28;5.80;;;4.10;;
47589;SDS011;33316;52.298;9.056;2023-10-19T07:35:57;4.75;;;4.13;;
47589;SDS011;33316;52.298;9.056;2023-10-19T07:38:27;4.22;;;3.67;;
47589;SDS011;33316;52.298;9.056;2023-10-19T07:40:58;5.78;;;4.05;;
47589;SDS011;33316;52.298;9.056;2023-10-19T07:43:26;5.75;;;3.83;;
47589;SDS011;33316;52.298;9.056;2023-10-19T07:45:57;4.35;;;3.60;;
47589;SDS011;33316;52.298;9.056;2023-10-19T07:48:26;5.63;;;4.20;;
47589;SDS011;33316;52.298;9.056;2023-10-19T07:50:54;5.43;;;4.15;;
47589;SDS011;33316;52.298;9.056;2023-10-19T07:53:22;5.18;;;3.90;;
47589;SDS011;33316;52.298;9.056;2023-10-19T07:55:50;4.47;;;3.33;;
47589;SDS011;33316;52.298;9.056;2023-10-19T07:58:18;5.65;;;3.55;;
47589;SDS011;33316;52.298;9.056;2023-10-19T08:00:45;4.00;;;3.55;;
47589;SDS011;33316;52.298;9.056;2023-10-19T08:03:14;3.90;;;3.25;;
47589;SDS011;33316;52.298;9.056;2023-10-19T08:05:42;3.60;;;2.97;;
47589;SDS011;33316;52.298;9.056;2023-10-19T08:08:10;4.72;;;3.67;;
47589;SDS011;33316;52.298;9.056;2023-10-19T08:10:37;4.00;;;3.60;;
47589;SDS011;33316;52.298;9.056;2023-10-19T08:13:04;4.93;;;4.03;;
47589;SDS011;33316;52.298;9.056;2023-10-19T08:15:32;4.60;;;3.72;;
47589;SDS011;33316;52.298;9.056;2023-10-19T08:18:01;4.50;;;3.60;;
47589;SDS011;33316;52.298;9.056;2023-10-19T08:20:33;4.68;;;3.80;;
47589;SDS011;33316;52.298;9.056;2023-10-19T08:23:07;5.63;;;4.13;;
47589;SDS011;33316;52.298;9.056;2023-10-19T08:25:36;6.05;;;4.68;;
47589;SDS011;33316;52.298;9.056;2023-10-19T08:28:04;5.45;;;4.43;;
47589;SDS011;33316;52.298;9.056;2023-10-19T08:30:32;6.03;;;4.72;;
47589;SDS011;33316;52.298;9.056;2023-10-19T08:32:59;6.18;;;4.97;;
47589;SDS011;33316;52.298;9.056;2023-10-19T08:35:27;6.55;;;5.70;;
47589;SDS011;33316;52.298;9.056;2023-10-19T08:37:59;7.28;;;5.38;;
47589;SDS011;33316;52.298;9.056;2023-10-19T08:40:31;5.72;;;4.90;;
47589;SDS011;33316;52.298;9.056;2023-10-19T08:43:00;7.00;;;5.20;;
47589;SDS011;33316;52.298;9.056;2023-10-19T08:45:29;7.90;;;5.65;;
47589;SDS011;33316;52.298;9.056;2023-10-19T08:48:00;8.40;;;5.57;;
47589;SDS011;33316;52.298;9.056;2023-10-19T08:50:28;6.75;;;5.10;;
47589;SDS011;33316;52.298;9.056;2023-10-19T08:52:56;6.70;;;4.95;;
47589;SDS011;33316;52.298;9.056;2023-10-19T08:55:25;8.10;;;5.75;;
47589;SDS011;33316;52.298;9.056;2023-10-19T08:57:54;7.90;;;6.55;;
47589;SDS011;33316;52.298;9.056;2023-10-19T09:00:23;9.15;;;6.53;;
47589;SDS011;33316;52.298;9.056;2023-10-19T09:02:51;6.32;;;5.15;;
47589;SDS011;33316;52.298;9.056;2023-10-19T09:05:20;5.28;;;4.15;;
47589;SDS011;33316;52.298;9.056;2023-10-19T09:10:32;6.40;;;4.55;;
47589;SDS011;33316;52.298;9.056;2023-10-19T09:13:02;6.30;;;4.97;;
47589;SDS011;33316;52.298;9.056;2023-10-19T09:15:30;7.80;;;5.95;;
47589;SDS011;33316;52.298;9.056;2023-10-19T09:18:01;6.75;;;5.38;;
47589;SDS011;33316;52.298;9.056;2023-10-19T09:20:46;6.72;;;5.30;;
47589;SDS011;33316;52.298;9.056;2023-10-19T09:23:21;5.90;;;4.70;;
47589;SDS011;33316;52.298;9.056;2023-10-19T09:25:49;8.48;;;6.13;;
47589;SDS011;33316;52.298;9.056;2023-10-19T09:28:18;7.65;;;5.40;;
47589;SDS011;33316;52.298;9.056;2023-10-19T09:30:49;6.03;;;5.32;;
47589;SDS011;33316;52.298;9.056;2023-10-19T09:33:19;4.03;;;3.25;;
47589;SDS011;33316;52.298;9.056;2023-10-19T09:38:18;7.05;;;5.65;;
47589;SDS011;33316;52.298;9.056;2023-10-19T09:40:51;8.63;;;5.28;;
47589;SDS011;33316;52.298;9.056;2023-10-19T09:43:21;7.45;;;5.63;;
47589;SDS011;33316;52.298;9.056;2023-10-19T09:45:52;8.85;;;5.40;;
47589;SDS011;33316;52.298;9.056;2023-10-19T09:48:26;7.43;;;5.40;;
47589;SDS011;33316;52.298;9.056;2023-10-19T09:50:54;7.03;;;5.70;;
47589;SDS011;33316;52.298;9.056;2023-10-19T09:53:24;7.80;;;5.60;;
47589;SDS011;33316;52.298;9.056;2023-10-19T09:55:56;6.22;;;5.30;;
47589;SDS011;33316;52.298;9.056;2023-10-19T09:58:26;8.32;;;5.68;;
47589;SDS011;33316;52.298;9.056;2023-10-19T10:00:55;6.32;;;4.93;;
47589;SDS011;33316;52.298;9.056;2023-10-19T10:03:43;8.57;;;6.07;;
47589;SDS011;33316;52.298;9.056;2023-10-19T10:06:11;7.93;;;5.97;;
47589;SDS011;33316;52.298;9.056;2023-10-19T10:08:43;6.65;;;5.80;;
47589;SDS011;33316;52.298;9.056;2023-10-19T10:11:20;7.35;;;5.43;;
47589;SDS011;33316;52.298;9.056;2023-10-19T10:13:49;8.23;;;5.80;;
47589;SDS011;33316;52.298;9.056;2023-10-19T10:16:21;8.43;;;5.55;;
47589;SDS011;33316;52.298;9.056;2023-10-19T10:18:50;7.10;;;5.97;;
47589;SDS011;33316;52.298;9.056;2023-10-19T10:21:25;8.05;;;6.28;;
47589;SDS011;33316;52.298;9.056;2023-10-19T10:23:53;8.45;;;6.50;;
47589;SDS011;33316;52.298;9.056;2023-10-19T10:26:23;7.47;;;6.35;;
47589;SDS011;33316;52.298;9.056;2023-10-19T10:29:07;9.15;;;6.78;;
47589;SDS011;33316;52.298;9.056;2023-10-19T10:31:40;7.47;;;6.50;;
47589;SDS011;33316;52.298;9.056;2023-10-19T10:34:09;9.05;;;6.72;;
47589;SDS011;33316;52.298;9.056;2023-10-19T10:36:58;9.70;;;6.63;;
47589;SDS011;33316;52.298;9.056;2023-10-19T10:39:27;7.20;;;5.78;;
47589;SDS011;33316;52.298;9.056;2023-10-19T10:41:57;9.13;;;6.97;;
47589;SDS011;33316;52.298;9.056;2023-10-19T10:44:36;9.30;;;7.18;;
47589;SDS011;33316;52.298;9.056;2023-10-19T10:47:06;9.30;;;7.32;;
47589;SDS011;33316;52.298;9.056;2023-10-19T10:49:35;10.45;;;7.65;;
47589;SDS011;33316;52.298;9.056;2023-10-19T10:52:15;7.78;;;6.47;;
47589;SDS011;33316;52.298;9.056;2023-10-19T10:54:50;10.63;;;7.10;;
47589;SDS011;33316;52.298;9.056;2023-10-19T10:57:18;7.53;;;6.32;;
47589;SDS011;33316;52.298;9.056;2023-10-19T11:00:00;8.35;;;6.35;;
47589;SDS011;33316;52.298;9.056;2023-10-19T11:02:30;8.50;;;5.97;;
47589;SDS011;33316;52.298;9.056;2023-10-19T11:04:59;7.82;;;6.25;;
47589;SDS011;33316;52.298;9.056;2023-10-19T11:07:28;6.60;;;5.63;;
47589;SDS011;33316;52.298;9.056;2023-10-19T11:09:57;8.82;;;6.43;;
47589;SDS011;33316;52.298;9.056;2023-10-19T11:12:26;8.88;;;6.85;;
47589;SDS011;33316;52.298;9.056;2023-10-19T11:14:53;9.02;;;6.88;;
47589;SDS011;33316;52.298;9.056;2023-10-19T11:17:26;8.77;;;6.32;;
47589;SDS011;33316;52.298;9.056;2023-10-19T11:19:57;8.13;;;6.63;;
47589;SDS011;33316;52.298;9.056;2023-10-19T11:22:25;7.47;;;6.35;;
47589;SDS011;33316;52.298;9.056;2023-10-19T11:24:53;8.45;;;6.50;;
47589;SDS011;33316;52.298;9.056;2023-10-19T11:27:26;9.27;;;6.82;;
47589;SDS011;33316;52.298;9.056;2023-10-19T11:29:56;8.57;;;6.43;;
47589;SDS011;33316;52.298;9.056;2023-10-19T11:32:24;7.43;;;6.60;;
47589;SDS011;33316;52.298;9.056;2023-10-19T11:34:53;8.07;;;6.43;;
47589;SDS011;33316;52.298;9.056;2023-10-19T11:37:21;8.02;;;5.95;;
47589;SDS011;33316;52.298;9.056;2023-10-19T11:39:49;7.80;;;6.43;;
47589;SDS011;33316;52.298;9.056;2023-10-19T11:42:17;10.15;;;7.05;;
47589;SDS011;33316;52.298;9.056;2023-10-19T11:44:49;10.73;;;6.30;;
47589;SDS011;33316;52.298;9.056;2023-10-19T11:47:17;8.98;;;7.30;;
47589;SDS011;33316;52.298;9.056;2023-10-19T11:49:46;10.32;;;6.38;;
47589;SDS011;33316;52.298;9.056;2023-10-19T11:52:13;8.32;;;6.43;;
47589;SDS011;33316;52.298;9.056;2023-10-19T11:54:42;9.00;;;6.70;;
47589;SDS011;33316;52.298;9.056;2023-10-19T11:57:10;8.48;;;6.40;;
47589;SDS011;33316;52.298;9.056;2023-10-19T11:59:37;6.70;;;5.15;;
47589;SDS011;33316;52.298;9.056;2023-10-19T12:02:07;6.63;;;5.35;;
47589;SDS011;33316;52.298;9.056;2023-10-19T12:04:34;7.88;;;5.95;;
47589;SDS011;33316;52.298;9.056;2023-10-19T12:07:03;8.63;;;6.15;;
47589;SDS011;33316;52.298;9.056;2023-10-19T12:09:30;10.45;;;7.43;;
47589;SDS011;33316;52.298;9.056;2023-10-19T12:11:58;8.52;;;6.90;;
47589;SDS011;33316;52.298;9.056;2023-10-19T12:14:25;8.32;;;6.95;;
47589;SDS011;33316;52.298;9.056;2023-10-19T12:16:55;8.80;;;7.18;;
47589;SDS011;33316;52.298;9.056;2023-10-19T12:19:27;8.15;;;6.50;;
47589;SDS011;33316;52.298;9.056;2023-10-19T12:21:56;7.68;;;6.22;;
47589;SDS011;33316;52.298;9.056;2023-10-19T12:24:23;8.00;;;6.20;;
47589;SDS011;33316;52.298;9.056;2023-10-19T12:26:53;8.18;;;6.70;;
47589;SDS011;33316;52.298;9.056;2023-10-19T12:29:21;8.70;;;6.55;;
47589;SDS011;33316;52.298;9.056;2023-10-19T12:31:48;8.70;;;6.70;;
47589;SDS011;33316;52.298;9.056;2023-10-19T12:34:16;8.38;;;6.72;;
47589;SDS011;33316;52.298;9.056;2023-10-19T12:36:45;10.35;;;7.55;;
47589;SDS011;33316;52.298;9.056;2023-10-19T12:39:14;8.40;;;6.80;;
47589;SDS011;33316;52.298;9.056;2023-10-19T12:42:00;7.82;;;6.50;;
47589;SDS011;33316;52.298;9.056;2023-10-19T12:44:28;7.90;;;6.28;;
47589;SDS011;33316;52.298;9.056;2023-10-19T12:47:04;8.70;;;6.63;;
47589;SDS011;33316;52.298;9.056;2023-10-19T12:49:34;7.45;;;5.88;;
47589;SDS011;33316;52.298;9.056;2023-10-19T12:52:03;8.30;;;6.70;;
47589;SDS011;33316;52.298;9.056;2023-10-19T12:54:32;9.73;;;7.18;;
47589;SDS011;33316;52.298;9.056;2023-10-19T12:57:04;9.07;;;7.05;;
47589;SDS011;33316;52.298;9.056;2023-10-19T12:59:35;8.30;;;6.57;;
47589;SDS011;33316;52.298;9.056;2023-10-19T13:02:03;9.13;;;7.68;;
47589;SDS011;33316;52.298;9.056;2023-10-19T13:04:34;9.60;;;7.05;;
47589;SDS011;33316;52.298;9.056;2023-10-19T13:07:03;9.82;;;7.45;;
47589;SDS011;33316;52.298;9.056;2023-10-19T13:09:30;10.00;;;7.80;;
47589;SDS011;33316;52.298;9.056;2023-10-19T13:11:58;9.32;;;6.85;;
47589;SDS011;33316;52.298;9.056;2023-10-19T13:14:25;10.07;;;7.47;;
47589;SDS011;33316;52.298;9.056;2023-10-19T13:16:52;10.25;;;7.90;;
47589;SDS011;33316;52.298;9.056;2023-10-19T13:19:20;10.50;;;7.95;;
47589;SDS011;33316;52.298;9.056;2023-10-19T13:21:49;10.15;;;7.90;;
47589;SDS011;33316;52.298;9.056;2023-10-19T13:24:20;10.35;;;8.43;;
47589;SDS011;33316;52.298;9.056;2023-10-19T13:26:47;9.77;;;7.45;;
47589;SDS011;33316;52.298;9.056;2023-10-19T13:29:14;9.93;;;8.10;;
47589;SDS011;33316;52.298;9.056;2023-10-19T13:31:45;10.60;;;8.45;;
47589;SDS011;33316;52.298;9.056;2023-10-19T13:34:15;10.85;;;8.25;;
47589;SDS011;33316;52.298;9.056;2023-10-19T13:36:43;12.13;;;9.10;;
47589;SDS011;33316;52.298;9.056;2023-10-19T13:39:18;11.68;;;9.57;;
47589;SDS011;33316;52.298;9.056;2023-10-19T13:41:50;12.02;;;8.90;;
47589;SDS011;33316;52.298;9.056;2023-10-19T13:44:19;11.80;;;8.73;;
47589;SDS011;33316;52.298;9.056;2023-10-19T13:46:47;12.23;;;9.13;;
47589;SDS011;33316;52.298;9.056;2023-10-19T13:49:16;11.98;;;8.93;;
47589;SDS011;33316;52.298;9.056;2023-10-19T13:51:44;11.98;;;9.00;;
47589;SDS011;33316;52.298;9.056;2023-10-19T13:54:12;11.63;;;8.95;;
47589;SDS011;33316;52.298;9.056;2023-10-19T13:56:43;13.02;;;9.43;;
47589;SDS011;33316;52.298;9.056;2023-10-19T13:59:11;13.88;;;10.35;;
47589;SDS011;33316;52.298;9.056;2023-10-19T14:01:40;14.90;;;11.23;;
47589;SDS011;33316;52.298;9.056;2023-10-19T14:04:09;14.35;;;10.52;;
47589;SDS011;33316;52.298;9.056;2023-10-19T14:06:37;15.90;;;11.02;;
47589;SDS011;33316;52.298;9.056;2023-10-19T14:09:04;13.25;;;10.32;;
47589;SDS011;33316;52.298;9.056;2023-10-19T14:11:31;14.93;;;10.38;;
47589;SDS011;33316;52.298;9.056;2023-10-19T14:14:04;13.50;;;10.80;;
47589;SDS011;33316;52.298;9.056;2023-10-19T14:16:31;15.13;;;11.15;;
47589;SDS011;33316;52.298;9.056;2023-10-19T14:18:59;14.25;;;11.10;;
47589;SDS011;33316;52.298;9.056;2023-10-19T14:21:33;15.23;;;11.27;;
47589;SDS011;33316;52.298;9.056;2023-10-19T14:24:04;15.18;;;11.13;;
47589;SDS011;33316;52.298;9.056;2023-10-19T14:26:37;15.02;;;11.23;;
47589;SDS011;33316;52.298;9.056;2023-10-19T14:29:07;14.85;;;10.93;;
47589;SDS011;33316;52.298;9.056;2023-10-19T14:31:34;15.73;;;10.55;;
47589;SDS011;33316;52.298;9.056;2023-10-19T14:34:03;18.15;;;12.27;;
47589;SDS011;33316;52.298;9.056;2023-10-19T14:36:34;15.85;;;11.73;;
47589;SDS011;33316;52.298;9.056;2023-10-19T14:39:02;15.35;;;11.07;;
47589;SDS011;33316;52.298;9.056;2023-10-19T14:41:30;13.80;;;10.77;;
47589;SDS011;33316;52.298;9.056;2023-10-19T14:43:59;16.35;;;11.43;;
47589;SDS011;33316;52.298;9.056;2023-10-19T14:46:33;15.85;;;11.60;;
47589;SDS011;33316;52.298;9.056;2023-10-19T14:49:01;17.77;;;12.75;;
47589;SDS011;33316;52.298;9.056;2023-10-19T14:51:28;15.85;;;11.30;;
47589;SDS011;33316;52.298;9.056;2023-10-19T14:53:56;15.88;;;10.93;;
47589;SDS011;33316;52.298;9.056;2023-10-19T14:56:24;15.77;;;10.65;;
47589;SDS011;33316;52.298;9.056;2023-10-19T14:58:51;14.95;;;11.07;;
47589;SDS011;33316;52.298;9.056;2023-10-19T15:01:23;16.30;;;11.18;;
47589;SDS011;33316;52.298;9.056;2023-10-19T15:03:53;15.75;;;11.40;;
47589;SDS011;33316;52.298;9.056;2023-10-19T15:06:21;17.05;;;12.25;;